Time;durP1;ratioP1;P1;durP2;ratioP2;P2;SDS_P1;SDS_P2;PMS_P1;PMS_P2;Temp;Humidity;BMP_temperature;BMP_pressure;BME280_temperature;BME280_humidity;BME280_pressure;Samples;Min_cycle;Max_cycle;Signal;HPM_P1;HPM_P2
2021/03/25 00:01:41;;;;;;;61.05;29.17;;;7.50;99.90;;;;;;5050607;28;20044;-47
2021/03/25 00:04:06;;;;;;;59.80;28.23;;;7.60;99.90;;;;;;5050506;28;20029;-45
2021/03/25 00:06:36;;;;;;;58.80;28.67;;;7.80;99.90;;;;;;5050027;28;20039;-46
2021/03/25 00:09:03;;;;;;;58.13;27.60;;;7.80;99.90;;;;;;5050698;28;20108;-47
2021/03/25 00:11:28;;;;;;;49.47;27.55;;;7.90;99.90;;;;;;5050358;28;20383;-46
2021/03/25 00:13:54;;;;;;;57.75;28.42;;;8.00;99.90;;;;;;5049169;28;20028;-46
2021/03/25 00:16:19;;;;;;;62.40;28.77;;;8.00;99.90;;;;;;5061258;28;20024;-46
2021/03/25 00:18:45;;;;;;;49.03;26.65;;;8.00;99.90;;;;;;5061232;28;20033;-49
2021/03/25 00:21:12;;;;;;;46.28;25.27;;;8.10;99.90;;;;;;5068914;28;20347;-46
2021/03/25 00:23:37;;;;;;;53.95;25.85;;;8.00;99.90;;;;;;5068821;28;20179;-45
2021/03/25 00:26:04;;;;;;;49.08;27.35;;;8.10;99.90;;;;;;5069630;28;20066;-45
2021/03/25 00:28:29;;;;;;;51.40;27.10;;;8.10;99.90;;;;;;5069713;28;20024;-45
2021/03/25 00:30:55;;;;;;;53.78;26.75;;;8.10;99.90;;;;;;5069028;28;20036;-46
2021/03/25 00:33:22;;;;;;;60.03;28.42;;;8.10;99.90;;;;;;5070240;28;20033;-46
2021/03/25 00:35:48;;;;;;;56.83;26.98;;;8.10;99.90;;;;;;5068873;28;20048;-44
2021/03/25 00:38:15;;;;;;;49.05;26.45;;;8.10;99.90;;;;;;5068452;28;20056;-46
2021/03/25 00:40:42;;;;;;;57.42;27.02;;;8.20;99.90;;;;;;5069761;28;20029;-47
2021/03/25 00:43:09;;;;;;;57.13;28.70;;;8.10;99.90;;;;;;5070091;28;20045;-47
2021/03/25 00:45:41;;;;;;;56.33;28.50;;;8.20;99.90;;;;;;5069017;28;20401;-46
2021/03/25 00:48:07;;;;;;;54.17;26.80;;;8.10;99.90;;;;;;5069954;28;20035;-46
2021/03/25 00:50:37;;;;;;;57.33;30.25;;;8.10;99.90;;;;;;5069542;28;20024;-48
2021/03/25 00:53:04;;;;;;;53.53;28.35;;;8.10;99.90;;;;;;5069868;28;20532;-46
2021/03/25 00:55:30;;;;;;;55.15;27.60;;;8.10;99.90;;;;;;5067330;28;20027;-48
2021/03/25 00:57:56;;;;;;;57.92;26.48;;;8.10;99.90;;;;;;5070061;28;20402;-48
2021/03/25 01:00:29;;;;;;;59.00;27.70;;;8.00;99.90;;;;;;5070204;28;20466;-47
2021/03/25 01:02:55;;;;;;;44.22;24.13;;;7.90;99.90;;;;;;5070015;28;20398;-47
2021/03/25 01:05:23;;;;;;;47.75;24.75;;;7.80;99.90;;;;;;5067833;28;20028;-46
2021/03/25 01:07:50;;;;;;;50.40;25.85;;;7.60;99.90;;;;;;5069269;28;20042;-46
2021/03/25 01:10:21;;;;;;;50.92;27.08;;;7.60;99.90;;;;;;5068625;28;20028;-45
2021/03/25 01:12:46;;;;;;;63.03;28.23;;;7.50;99.90;;;;;;5069152;28;20505;-48
2021/03/25 01:15:13;;;;;;;55.30;28.48;;;7.50;99.90;;;;;;5068909;28;20474;-49
2021/03/25 01:17:44;;;;;;;54.00;26.45;;;7.50;99.90;;;;;;5061611;28;20111;-44
2021/03/25 01:20:20;;;;;;;56.28;27.15;;;7.50;99.90;;;;;;5068726;28;20043;-44
2021/03/25 01:22:46;;;;;;;59.92;28.65;;;7.40;99.90;;;;;;5067545;28;20078;-46
2021/03/25 01:25:12;;;;;;;59.75;30.60;;;7.50;99.90;;;;;;5068763;28;20028;-46
2021/03/25 01:27:38;;;;;;;63.13;29.83;;;7.50;99.90;;;;;;5067359;28;20584;-45
2021/03/25 01:30:05;;;;;;;59.58;28.48;;;7.50;99.90;;;;;;5069203;28;20044;-45
2021/03/25 01:32:30;;;;;;;68.85;30.15;;;7.40;99.90;;;;;;5068897;28;20025;-46
2021/03/25 01:34:56;;;;;;;54.88;28.00;;;7.40;99.90;;;;;;5067125;28;20025;-46
2021/03/25 01:37:21;;;;;;;66.63;29.63;;;7.40;99.90;;;;;;5068957;28;20048;-48
2021/03/25 01:39:48;;;;;;;58.83;28.77;;;7.30;99.90;;;;;;5068846;28;20039;-47
2021/03/25 01:42:23;;;;;;;65.22;29.33;;;7.30;99.90;;;;;;5068895;28;20020;-46
2021/03/25 01:44:48;;;;;;;61.22;29.85;;;7.20;99.90;;;;;;5068678;28;20027;-46
2021/03/25 01:47:14;;;;;;;56.20;28.75;;;7.20;99.90;;;;;;5068979;28;20382;-46
2021/03/25 01:49:40;;;;;;;59.33;28.60;;;7.20;99.90;;;;;;5068270;28;20039;-45
2021/03/25 01:52:33;;;;;;;57.50;27.33;;;7.20;99.90;;;;;;5068546;28;20012;-47
2021/03/25 01:55:33;;;;;;;64.78;29.15;;;7.20;99.90;;;;;;5067999;28;20056;-45
2021/03/25 01:58:18;;;;;;;58.50;28.53;;;7.10;99.90;;;;;;5068397;28;20111;-46
2021/03/25 02:01:11;;;;;;;59.55;27.30;;;7.10;99.90;;;;;;5068338;28;20027;-46
2021/03/25 02:03:55;;;;;;;66.43;31.05;;;7.00;99.90;;;;;;5068232;28;20025;-46
2021/03/25 02:06:39;;;;;;;75.65;33.42;;;7.00;99.90;;;;;;5067398;28;20067;-46
2021/03/25 02:09:12;;;;;;;65.68;32.60;;;7.00;99.90;;;;;;5068362;28;20029;-47
2021/03/25 02:12:02;;;;;;;71.40;31.77;;;7.00;99.90;;;;;;5066941;28;20039;-46
2021/03/25 02:14:43;;;;;;;74.68;35.05;;;6.90;99.90;;;;;;5067983;28;20039;-46
2021/03/25 02:17:24;;;;;;;68.57;34.38;;;6.90;99.90;;;;;;5067508;28;20436;-46
2021/03/25 02:20:23;;;;;;;64.38;31.08;;;6.90;99.90;;;;;;5059561;28;20512;-46
2021/03/25 02:23:00;;;;;;;76.60;34.33;;;7.00;99.90;;;;;;5048054;28;20500;-48
2021/03/25 02:25:33;;;;;;;77.00;34.53;;;6.90;99.90;;;;;;5047664;28;20025;-46
2021/03/25 02:28:14;;;;;;;69.40;32.75;;;6.80;99.90;;;;;;5048145;28;20022;-46
2021/03/25 02:30:45;;;;;;;66.97;32.25;;;6.80;99.90;;;;;;5046324;28;20033;-47
2021/03/25 02:33:21;;;;;;;72.63;33.85;;;6.80;99.90;;;;;;5048113;28;20144;-46
2021/03/25 02:35:52;;;;;;;71.32;34.55;;;6.70;99.90;;;;;;5046516;28;20245;-48
2021/03/25 02:38:31;;;;;;;69.57;32.33;;;6.70;99.90;;;;;;5047956;28;20009;-45
2021/03/25 02:41:01;;;;;;;62.35;30.50;;;6.60;99.90;;;;;;5048181;28;20032;-46
2021/03/25 02:43:39;;;;;;;56.05;30.27;;;6.60;99.90;;;;;;5047754;28;20414;-47
2021/03/25 02:46:10;;;;;;;68.03;33.17;;;6.50;99.90;;;;;;5047248;28;20029;-46
2021/03/25 02:48:38;;;;;;;60.35;31.20;;;6.40;99.90;;;;;;5055939;28;20024;-46
2021/03/25 02:51:19;;;;;;;64.97;31.60;;;6.30;99.90;;;;;;5067733;28;20032;-45
2021/03/25 02:53:46;;;;;;;66.45;31.33;;;6.30;99.90;;;;;;5067481;28;20025;-45
2021/03/25 02:56:20;;;;;;;63.30;32.25;;;6.20;99.90;;;;;;5066542;28;20143;-45
2021/03/25 02:58:50;;;;;;;80.40;34.22;;;6.20;99.90;;;;;;5065915;28;20480;-44
2021/03/25 03:01:17;;;;;;;69.75;33.70;;;6.10;99.90;;;;;;5067642;28;20486;-45
2021/03/25 03:03:58;;;;;;;74.18;33.28;;;6.10;99.90;;;;;;5067719;28;20066;-44
2021/03/25 03:06:29;;;;;;;71.13;34.35;;;6.10;99.90;;;;;;5066719;28;20051;-43
2021/03/25 03:08:56;;;;;;;83.80;35.72;;;6.10;99.90;;;;;;5067275;28;20028;-44
2021/03/25 03:11:50;;;;;;;67.95;33.30;;;6.00;99.90;;;;;;5066970;28;20486;-44
2021/03/25 03:14:38;;;;;;;64.93;31.75;;;6.00;99.90;;;;;;5065552;28;20033;-44
2021/03/25 03:17:20;;;;;;;79.05;34.80;;;5.90;99.90;;;;;;5055831;28;20329;-43
2021/03/25 03:20:00;;;;;;;77.03;36.63;;;5.90;99.90;;;;;;5063067;28;20048;-49
2021/03/25 03:22:27;;;;;;;78.55;35.25;;;5.90;99.90;;;;;;5067190;28;20436;-44
2021/03/25 03:24:52;;;;;;;78.18;35.55;;;5.80;99.90;;;;;;5067118;28;20464;-44
2021/03/25 03:27:21;;;;;;;83.72;36.67;;;5.70;99.90;;;;;;5067337;28;20111;-45
2021/03/25 03:29:47;;;;;;;71.50;32.88;;;5.70;99.90;;;;;;5067276;28;20075;-48
2021/03/25 03:32:33;;;;;;;74.68;34.25;;;5.70;99.90;;;;;;5067906;28;20510;-44
2021/03/25 03:35:08;;;;;;;72.95;34.00;;;5.60;99.90;;;;;;5069577;28;20047;-48
2021/03/25 03:37:38;;;;;;;76.07;35.90;;;5.60;99.90;;;;;;5069537;28;20031;-45
2021/03/25 03:40:12;;;;;;;81.72;35.55;;;5.60;99.90;;;;;;5071576;28;20029;-44
2021/03/25 03:42:40;;;;;;;66.20;34.42;;;5.60;99.90;;;;;;5071365;28;20566;-45
2021/03/25 03:45:09;;;;;;;74.55;36.08;;;5.50;99.90;;;;;;5070736;28;20497;-45
2021/03/25 03:47:36;;;;;;;82.10;36.25;;;5.50;99.90;;;;;;5070598;28;20056;-44
2021/03/25 03:50:05;;;;;;;69.22;35.33;;;5.50;99.90;;;;;;5070744;28;20040;-45
2021/03/25 03:52:37;;;;;;;88.18;37.35;;;5.50;99.90;;;;;;5070561;28;20397;-48
2021/03/25 03:55:05;;;;;;;78.03;37.63;;;5.50;99.90;;;;;;5070585;28;20059;-45
2021/03/25 03:57:56;;;;;;;75.50;34.00;;;5.40;99.90;;;;;;5070261;28;20052;-45
2021/03/25 04:00:32;;;;;;;77.78;38.17;;;5.40;99.90;;;;;;5063703;28;20041;-45
2021/03/25 04:03:40;;;;;;;88.32;37.60;;;5.40;99.90;;;;;;5071090;28;20062;-46
2021/03/25 04:06:21;;;;;;;83.28;40.20;;;5.40;99.90;;;;;;5061629;28;20067;-47
2021/03/25 04:09:02;;;;;;;94.97;36.30;;;5.40;99.90;;;;;;5070451;28;20056;-45
2021/03/25 04:11:33;;;;;;;91.72;41.28;;;5.40;99.90;;;;;;5070525;28;20033;-45
2021/03/25 04:14:05;;;;;;;88.93;38.75;;;5.30;99.90;;;;;;5070618;28;20052;-45
2021/03/25 04:16:34;;;;;;;85.43;39.25;;;5.30;99.90;;;;;;5069750;28;20066;-44
2021/03/25 04:19:27;;;;;;;85.70;38.47;;;5.20;99.90;;;;;;5070498;28;20074;-44
2021/03/25 04:22:00;;;;;;;86.80;36.65;;;5.10;99.90;;;;;;5067899;28;20028;-44
2021/03/25 04:24:39;;;;;;;74.35;33.58;;;5.10;99.90;;;;;;5067943;28;20531;-44
2021/03/25 04:27:14;;;;;;;73.90;34.05;;;5.10;99.90;;;;;;5068063;28;20020;-45
2021/03/25 04:29:45;;;;;;;71.93;32.95;;;5.10;99.90;;;;;;5067684;28;20226;-45
2021/03/25 04:32:12;;;;;;;72.70;32.92;;;5.00;99.90;;;;;;5070019;28;20097;-45
2021/03/25 04:34:38;;;;;;;70.63;31.88;;;5.00;99.90;;;;;;5068271;28;20493;-44
2021/03/25 04:37:07;;;;;;;73.97;33.40;;;5.00;99.90;;;;;;5068743;28;20024;-47
2021/03/25 04:39:33;;;;;;;73.60;34.72;;;5.00;99.90;;;;;;5069323;28;20023;-45
2021/03/25 04:42:01;;;;;;;72.95;33.78;;;4.90;99.90;;;;;;5069585;28;20517;-45
2021/03/25 04:44:52;;;;;;;77.35;37.65;;;5.00;99.90;;;;;;5063724;28;20041;-47
2021/03/25 04:47:22;;;;;;;71.25;33.08;;;5.00;99.90;;;;;;5067494;28;20031;-46
2021/03/25 04:50:13;;;;;;;69.35;32.30;;;5.00;99.90;;;;;;5068074;28;20119;-44
2021/03/25 04:52:39;;;;;;;70.07;32.05;;;4.80;99.90;;;;;;5068608;28;20033;-46
2021/03/25 04:55:14;;;;;;;70.30;31.45;;;4.80;99.90;;;;;;5069168;28;20382;-45
2021/03/25 04:57:49;;;;;;;80.57;35.35;;;4.80;99.90;;;;;;5069242;28;20020;-45
2021/03/25 05:00:18;;;;;;;82.32;36.28;;;4.80;99.90;;;;;;5068445;28;20024;-47
2021/03/25 05:02:44;;;;;;;80.53;36.00;;;4.80;99.90;;;;;;5069731;28;20124;-46
2021/03/25 05:05:20;;;;;;;74.50;35.20;;;4.70;99.90;;;;;;5069138;28;20119;-44
2021/03/25 05:07:51;;;;;;;80.07;38.65;;;4.70;99.90;;;;;;5069224;28;20040;-45
2021/03/25 05:10:24;;;;;;;83.70;37.20;;;4.80;99.90;;;;;;5069499;28;20020;-45
2021/03/25 05:12:52;;;;;;;84.53;37.50;;;4.70;99.90;;;;;;5068986;28;20040;-44
2021/03/25 05:15:19;;;;;;;70.30;34.25;;;4.70;99.90;;;;;;5067582;28;20025;-46
2021/03/25 05:18:10;;;;;;;73.47;33.90;;;4.60;99.90;;;;;;5068719;28;20089;-45
2021/03/25 05:20:53;;;;;;;85.85;36.95;;;4.60;99.90;;;;;;5063496;28;20028;-45
2021/03/25 05:23:49;;;;;;;74.65;34.80;;;4.60;99.90;;;;;;5056536;28;20032;-45
2021/03/25 05:26:25;;;;;;;71.07;31.35;;;4.50;99.90;;;;;;5048776;28;20060;-45
2021/03/25 05:28:55;;;;;;;71.40;33.40;;;4.50;99.90;;;;;;5048741;28;20029;-45
2021/03/25 05:31:21;;;;;;;72.85;31.65;;;4.50;99.90;;;;;;5049434;28;20024;-44
2021/03/25 05:33:52;;;;;;;64.65;29.80;;;4.60;99.90;;;;;;5048684;28;20090;-44
2021/03/25 05:36:18;;;;;;;;;;;4.60;99.90;;;;;;5048219;28;20607;-48
2021/03/25 05:38:44;;;;;;;69.35;32.67;;;4.60;99.90;;;;;;5048137;28;19944;-46
2021/03/25 05:41:30;;;;;;;85.28;35.10;;;4.60;99.90;;;;;;5047854;28;20075;-46
2021/03/25 05:44:08;;;;;;;77.03;36.17;;;4.60;99.90;;;;;;5049087;28;20021;-44
2021/03/25 05:46:52;;;;;;;70.80;32.15;;;4.60;99.90;;;;;;5048201;28;20502;-45
2021/03/25 05:49:29;;;;;;;81.35;35.15;;;4.60;99.90;;;;;;5053575;28;20354;-44
2021/03/25 05:52:05;;;;;;;77.90;33.70;;;4.60;99.90;;;;;;5068611;28;20040;-45
2021/03/25 05:54:53;;;;;;;69.45;36.33;;;4.60;99.90;;;;;;5074592;28;20239;-46
2021/03/25 05:57:35;;;;;;;62.63;30.05;;;4.70;99.90;;;;;;5077595;28;20385;-46
2021/03/25 06:00:03;;;;;;;66.15;31.88;;;4.70;99.90;;;;;;5062255;28;20387;-46
2021/03/25 06:02:48;;;;;;;70.93;32.55;;;4.70;99.90;;;;;;5048509;28;20083;-45
2021/03/25 06:05:15;;;;;;;67.65;31.65;;;4.80;99.90;;;;;;5047832;28;20025;-46
2021/03/25 06:08:07;;;;;;;76.00;34.92;;;4.80;99.90;;;;;;5060958;28;20032;-48
2021/03/25 06:11:06;;;;;;;66.97;32.53;;;4.90;99.90;;;;;;5063393;28;20028;-46
2021/03/25 06:14:02;;;;;;;79.85;36.58;;;4.90;99.90;;;;;;5064324;28;20393;-45
2021/03/25 06:16:33;;;;;;;80.60;35.95;;;5.00;99.90;;;;;;5067356;28;20017;-45
2021/03/25 06:19:32;;;;;;;80.72;37.10;;;5.10;99.90;;;;;;5068287;28;20502;-45
2021/03/25 06:22:11;;;;;;;94.68;40.55;;;5.20;99.90;;;;;;5067953;28;20086;-45
2021/03/25 06:25:04;;;;;;;81.65;37.95;;;5.40;99.90;;;;;;5066947;28;20632;-46
2021/03/25 06:27:29;;;;;;;76.20;34.50;;;5.50;99.90;;;;;;5072998;28;20031;-45
2021/03/25 06:30:01;;;;;;;65.43;32.30;;;5.70;99.90;;;;;;5077284;28;20036;-46
2021/03/25 06:32:45;;;;;;;65.72;33.13;;;5.90;99.90;;;;;;5073169;28;20032;-46
2021/03/25 06:35:16;;;;;;;76.85;35.47;;;6.00;99.90;;;;;;5054748;28;20252;-46
2021/03/25 06:38:02;;;;;;;72.53;34.97;;;6.10;99.90;;;;;;5081305;28;20362;-48
2021/03/25 06:40:41;;;;;;;77.00;34.85;;;6.20;99.90;;;;;;5073278;28;20373;-46
2021/03/25 06:43:14;;;;;;;76.18;36.83;;;6.30;99.90;;;;;;5084675;28;20016;-45
2021/03/25 06:45:45;;;;;;;66.20;32.55;;;6.30;99.90;;;;;;5074489;28;20568;-46
2021/03/25 06:48:34;;;;;;;70.88;34.08;;;6.40;99.90;;;;;;5074389;28;20028;-45
2021/03/25 06:51:05;;;;;;;78.93;38.17;;;6.50;99.90;;;;;;5084405;28;20561;-46
2021/03/25 06:53:33;;;;;;;81.75;38.95;;;6.60;99.90;;;;;;5072044;28;20115;-45
2021/03/25 06:56:07;;;;;;;87.97;41.20;;;6.60;99.90;;;;;;5067612;28;20264;-45
2021/03/25 06:58:45;;;;;;;94.88;42.80;;;6.70;99.90;;;;;;5083865;28;20047;-46
2021/03/25 07:01:43;;;;;;;86.07;39.90;;;6.80;99.90;;;;;;5072903;28;20070;-46
2021/03/25 07:04:23;;;;;;;75.63;36.72;;;6.90;99.90;;;;;;5081387;28;20081;-46
2021/03/25 07:06:49;;;;;;;78.30;39.20;;;7.10;99.90;;;;;;5077749;28;20024;-46
2021/03/25 07:09:15;;;;;;;87.70;40.88;;;7.20;99.90;;;;;;5068666;28;20028;-46
2021/03/25 07:11:42;;;;;;;74.00;36.35;;;7.30;99.90;;;;;;5068528;28;20613;-46
2021/03/25 07:14:12;;;;;;;71.57;37.55;;;7.50;99.90;;;;;;5068579;28;20078;-46
2021/03/25 07:16:42;;;;;;;84.60;40.63;;;7.70;99.90;;;;;;5068135;28;20032;-47
2021/03/25 07:19:12;;;;;;;86.75;41.72;;;7.90;99.90;;;;;;5067560;28;20035;-47
2021/03/25 07:21:43;;;;;;;75.78;38.35;;;7.90;99.90;;;;;;5069097;28;20029;-45
2021/03/25 07:24:32;;;;;;;75.18;38.17;;;8.00;99.90;;;;;;5064069;28;20537;-48
2021/03/25 07:27:22;;;;;;;83.57;40.15;;;8.20;99.90;;;;;;5049405;28;20033;-46
2021/03/25 07:29:59;;;;;;;79.65;40.35;;;8.40;99.90;;;;;;5048541;28;20441;-47
2021/03/25 07:32:44;;;;;;;86.38;41.65;;;8.50;99.90;;;;;;5049726;28;20059;-47
2021/03/25 07:35:25;;;;;;;85.40;43.10;;;8.70;99.90;;;;;;5066323;28;20478;-46
2021/03/25 07:37:52;;;;;;;85.95;45.03;;;8.80;99.90;;;;;;5055693;28;20029;-48
2021/03/25 07:40:23;;;;;;;86.53;42.13;;;9.00;99.90;;;;;;5048587;28;20133;-55
2021/03/25 07:42:48;;;;;;;89.88;45.20;;;9.20;99.90;;;;;;5048682;28;20036;-46
2021/03/25 07:45:25;;;;;;;83.75;43.75;;;9.30;99.90;;;;;;5048266;28;20063;-46
2021/03/25 07:47:53;;;;;;;92.75;44.58;;;9.50;99.90;;;;;;5048470;28;20048;-46
2021/03/25 07:50:35;;;;;;;86.88;45.72;;;9.50;99.90;;;;;;5048783;28;20087;-48
2021/03/25 07:53:19;;;;;;;104.75;51.63;;;9.70;99.90;;;;;;5047577;28;20195;-49
2021/03/25 07:55:45;;;;;;;97.78;49.92;;;9.80;99.90;;;;;;5060484;28;20047;-49
2021/03/25 07:58:37;;;;;;;100.82;51.13;;;9.90;99.90;;;;;;5048409;28;20017;-45
2021/03/25 08:01:10;;;;;;;94.63;49.67;;;10.10;99.90;;;;;;5047548;28;20355;-49
2021/03/25 08:03:46;;;;;;;96.57;50.65;;;10.20;99.90;;;;;;5048396;28;20040;-46
2021/03/25 08:06:18;;;;;;;97.32;49.03;;;10.30;99.90;;;;;;5047686;28;20078;-47
2021/03/25 08:08:44;;;;;;;92.20;47.53;;;10.40;99.90;;;;;;5048134;28;20048;-49
2021/03/25 08:11:20;;;;;;;94.40;50.75;;;10.50;99.90;;;;;;5048629;28;20017;-47
2021/03/25 08:14:19;;;;;;;90.32;47.13;;;10.60;99.90;;;;;;5048266;28;20036;-48
2021/03/25 08:16:49;;;;;;;96.13;50.55;;;10.80;99.90;;;;;;5059018;28;20071;-46
2021/03/25 08:19:20;;;;;;;100.53;52.15;;;11.00;99.90;;;;;;5069996;28;20040;-49
2021/03/25 08:21:55;;;;;;;95.03;50.85;;;11.20;99.90;;;;;;5070232;28;20017;-45
2021/03/25 08:24:45;;;;;;;95.10;52.58;;;11.40;99.90;;;;;;5069276;28;20098;-47
2021/03/25 08:27:23;;;;;;;94.57;50.97;;;11.70;99.90;;;;;;5067588;28;20066;-47
2021/03/25 08:30:07;;;;;;;100.18;52.55;;;12.00;99.90;;;;;;5065858;28;20037;-49
2021/03/25 08:32:53;;;;;;;96.80;53.70;;;12.60;99.90;;;;;;5069254;28;20025;-46
2021/03/25 08:35:31;;;;;;;94.40;52.35;;;13.30;99.90;;;;;;5068798;28;20024;-47
2021/03/25 08:38:28;;;;;;;92.30;55.95;;;14.10;99.90;;;;;;5068979;28;20150;-48
2021/03/25 08:40:59;;;;;;;84.88;50.55;;;14.30;97.30;;;;;;5069705;28;20107;-46
2021/03/25 08:43:33;;;;;;;;;;;14.10;98.30;;;;;;5070053;28;20017;-49
2021/03/25 08:46:22;;;;;;;92.97;53.38;;;14.00;97.70;;;;;;5069746;28;19904;-47
2021/03/25 08:48:57;;;;;;;98.95;57.03;;;13.60;98.70;;;;;;5061123;28;20326;-47
2021/03/25 08:51:29;;;;;;;92.45;54.95;;;13.30;99.90;;;;;;5067910;28;20029;-47
2021/03/25 08:54:00;;;;;;;88.97;53.65;;;13.20;99.60;;;;;;5069480;28;20314;-47
2021/03/25 08:56:51;;;;;;;99.82;56.45;;;13.10;99.90;;;;;;5068668;28;20029;-45
2021/03/25 08:59:32;;;;;;;98.53;52.53;;;13.00;99.90;;;;;;5069396;28;20062;-47
2021/03/25 09:02:16;;;;;;;103.30;56.28;;;13.00;99.90;;;;;;5069286;28;20025;-45
2021/03/25 09:05:05;;;;;;;96.70;52.35;;;12.90;99.90;;;;;;5067782;28;20054;-46
2021/03/25 09:07:33;;;;;;;98.35;55.35;;;12.70;99.90;;;;;;5068992;28;20025;-46
2021/03/25 09:10:21;;;;;;;96.32;51.55;;;12.60;99.90;;;;;;5069008;28;20036;-46
2021/03/25 09:12:46;;;;;;;88.45;48.65;;;12.60;99.90;;;;;;5068499;28;20033;-45
2021/03/25 09:15:12;;;;;;;94.38;52.47;;;12.70;99.90;;;;;;5068802;28;20378;-46
2021/03/25 09:17:52;;;;;;;84.47;48.80;;;12.50;99.90;;;;;;5068478;28;20153;-48
2021/03/25 09:20:34;;;;;;;97.32;53.28;;;12.50;99.90;;;;;;5067783;28;20071;-46
2021/03/25 09:23:29;;;;;;;94.78;50.45;;;12.50;99.90;;;;;;5065952;28;20028;-46
2021/03/25 09:25:56;;;;;;;104.70;57.53;;;12.40;99.90;;;;;;5066405;28;20031;-47
2021/03/25 09:28:22;;;;;;;105.93;55.45;;;12.30;99.90;;;;;;5064956;28;20040;-46
2021/03/25 09:30:53;;;;;;;96.32;52.03;;;12.30;99.90;;;;;;5067968;28;20032;-45
2021/03/25 09:33:41;;;;;;;100.68;51.03;;;12.10;99.90;;;;;;5067192;28;20078;-46
2021/03/25 09:36:18;;;;;;;96.45;51.30;;;12.10;99.90;;;;;;5067595;28;20024;-46
2021/03/25 09:38:59;;;;;;;92.97;53.17;;;12.10;99.90;;;;;;5068070;28;20029;-46
2021/03/25 09:41:24;;;;;;;92.13;52.53;;;12.10;99.90;;;;;;5068180;28;20024;-48
2021/03/25 09:43:52;;;;;;;103.32;53.92;;;12.10;99.90;;;;;;5067038;28;20025;-47
2021/03/25 09:46:33;;;;;;;83.65;47.83;;;12.20;99.90;;;;;;5067791;28;20030;-47
2021/03/25 09:49:25;;;;;;;91.82;51.60;;;12.20;99.90;;;;;;5066953;28;20048;-46
2021/03/25 09:52:06;;;;;;;83.68;47.92;;;12.30;99.90;;;;;;5061997;28;20436;-46
2021/03/25 09:54:33;;;;;;;;;;;12.40;99.90;;;;;;5068528;28;20028;-46
2021/03/25 09:57:18;;;;;;;93.45;50.65;;;12.30;99.90;;;;;;5066865;28;19905;-47
2021/03/25 09:59:49;;;;;;;97.68;51.60;;;12.20;99.90;;;;;;5067980;28;20051;-46
2021/03/25 10:02:37;;;;;;;89.72;48.17;;;12.30;99.90;;;;;;5068174;28;20023;-46
2021/03/25 10:05:28;;;;;;;91.47;48.38;;;12.30;99.90;;;;;;5067511;28;20024;-46
2021/03/25 10:08:09;;;;;;;91.90;48.13;;;12.40;99.90;;;;;;5066916;28;20052;-46
2021/03/25 10:10:58;;;;;;;85.20;47.05;;;12.40;99.90;;;;;;5069965;28;20340;-49
2021/03/25 10:13:44;;;;;;;85.90;46.72;;;12.40;99.90;;;;;;5068409;28;20034;-46
2021/03/25 10:16:30;;;;;;;80.30;45.78;;;12.40;99.90;;;;;;5066809;28;20021;-46
2021/03/25 10:18:58;;;;;;;86.88;48.92;;;12.50;99.90;;;;;;5056524;28;20044;-50
2021/03/25 10:21:54;;;;;;;90.70;48.38;;;12.50;99.90;;;;;;5068646;28;20554;-46
2021/03/25 10:24:24;;;;;;;92.80;48.63;;;12.50;99.90;;;;;;5060797;28;20098;-49
2021/03/25 10:27:03;;;;;;;88.40;48.08;;;12.50;99.90;;;;;;5067761;28;20104;-45
2021/03/25 10:29:36;;;;;;;88.72;47.85;;;12.50;99.90;;;;;;5064035;28;20503;-46
2021/03/25 10:32:10;;;;;;;83.95;46.08;;;12.50;99.90;;;;;;5068852;28;20070;-47
2021/03/25 10:34:41;;;;;;;79.43;44.28;;;12.60;99.90;;;;;;5065699;28;20017;-47
2021/03/25 10:37:34;;;;;;;89.88;47.25;;;12.70;99.90;;;;;;5068497;28;20047;-48
2021/03/25 10:40:27;;;;;;;97.60;45.30;;;12.70;99.90;;;;;;5068759;28;20024;-47
2021/03/25 10:42:57;;;;;;;75.82;43.35;;;12.90;99.90;;;;;;5068922;28;20062;-48
2021/03/25 10:45:25;;;;;;;77.63;43.40;;;13.20;99.90;;;;;;5068354;28;20570;-47
2021/03/25 10:48:16;;;;;;;87.20;42.42;;;13.50;99.90;;;;;;5068800;28;20101;-46
2021/03/25 10:50:58;;;;;;;76.38;43.28;;;13.80;99.90;;;;;;5065102;28;20044;-46
2021/03/25 10:53:29;;;;;;;86.60;45.22;;;14.00;98.30;;;;;;5068944;28;20016;-45
2021/03/25 10:56:13;;;;;;;73.28;41.20;;;14.20;96.90;;;;;;5066566;28;20028;-48
2021/03/25 10:58:43;;;;;;;93.85;42.10;;;14.30;96.50;;;;;;5067668;28;20036;-46
2021/03/25 11:01:24;;;;;;;71.32;40.63;;;14.00;96.40;;;;;;5068784;28;20033;-48
2021/03/25 11:03:50;;;;;;;64.47;38.20;;;13.90;96.30;;;;;;5068398;28;20032;-45
2021/03/25 11:06:33;;;;;;;70.00;39.63;;;13.80;97.20;;;;;;5068462;28;20016;-46
2021/03/25 11:09:15;;;;;;;73.22;39.55;;;13.70;97.40;;;;;;5068999;28;20033;-46
2021/03/25 11:11:42;;;;;;;69.15;38.88;;;13.40;97.50;;;;;;5066729;28;20032;-46
2021/03/25 11:14:32;;;;;;;73.97;42.70;;;13.30;98.30;;;;;;5067773;28;20486;-45
2021/03/25 11:17:21;;;;;;;72.27;40.10;;;13.20;98.50;;;;;;5066916;28;20040;-45
2021/03/25 11:19:59;;;;;;;77.85;43.42;;;13.00;99.00;;;;;;5066615;28;20033;-48
2021/03/25 11:22:24;;;;;;;75.32;41.88;;;12.90;98.90;;;;;;5065804;28;20013;-45
2021/03/25 11:24:51;;;;;;;77.03;41.90;;;12.80;99.70;;;;;;5065953;28;20097;-46
2021/03/25 11:27:21;;;;;;;71.85;38.50;;;12.80;99.90;;;;;;5065500;28;20040;-45
2021/03/25 11:29:57;;;;;;;70.10;40.28;;;12.80;99.90;;;;;;5064612;28;20375;-48
2021/03/25 11:32:25;;;;;;;65.57;39.42;;;12.80;99.90;;;;;;5064892;28;20024;-45
2021/03/25 11:34:53;;;;;;;72.20;40.38;;;12.80;99.90;;;;;;5062961;28;20032;-45
2021/03/25 11:37:39;;;;;;;67.28;37.45;;;12.80;99.20;;;;;;5065290;28;20316;-48
2021/03/25 11:40:14;;;;;;;62.58;37.22;;;12.90;99.70;;;;;;5066080;28;20120;-46
2021/03/25 11:42:42;;;;;;;79.85;43.83;;;13.00;99.90;;;;;;5062883;28;20024;-48
2021/03/25 11:45:37;;;;;;;78.70;44.22;;;13.10;99.90;;;;;;5066877;28;20639;-46
2021/03/25 11:48:14;;;;;;;72.85;40.90;;;13.00;99.70;;;;;;5066844;28;20568;-49
2021/03/25 11:50:39;;;;;;;74.85;40.63;;;13.10;99.30;;;;;;5062627;28;20107;-47
2021/03/25 11:53:23;;;;;;;76.40;41.95;;;13.20;99.00;;;;;;5066366;28;20450;-49
2021/03/25 11:55:51;;;;;;;77.15;41.35;;;13.20;98.30;;;;;;5067321;28;20475;-49
2021/03/25 11:58:22;;;;;;;69.85;39.25;;;13.30;98.80;;;;;;5069605;28;20055;-46
2021/03/25 12:01:01;;;;;;;74.30;40.78;;;13.40;98.20;;;;;;5070703;28;20044;-45
2021/03/25 12:03:30;;;;;;;74.10;40.95;;;13.60;97.40;;;;;;5069878;28;20028;-46
2021/03/25 12:05:55;;;;;;;74.97;43.80;;;13.70;97.30;;;;;;5069125;28;20016;-46
2021/03/25 12:08:25;;;;;;;76.30;42.97;;;13.70;95.70;;;;;;5069741;28;20493;-49
2021/03/25 12:11:17;;;;;;;71.80;41.87;;;13.70;96.30;;;;;;5064843;28;20355;-48
2021/03/25 12:13:43;;;;;;;71.50;40.83;;;13.90;97.20;;;;;;5064284;28;20283;-47
2021/03/25 12:16:10;;;;;;;72.90;42.92;;;14.10;95.70;;;;;;5069396;28;20025;-47
2021/03/25 12:18:43;;;;;;;78.35;45.60;;;14.10;97.00;;;;;;5069829;28;20131;-46
2021/03/25 12:21:10;;;;;;;75.50;42.70;;;14.30;95.70;;;;;;5069491;28;20038;-49
2021/03/25 12:23:39;;;;;;;100.72;45.38;;;14.50;95.90;;;;;;5070068;28;20039;-46
2021/03/25 12:26:09;;;;;;;87.97;43.35;;;14.70;95.50;;;;;;5069142;28;20100;-46
2021/03/25 12:28:35;;;;;;;70.50;41.33;;;14.80;95.20;;;;;;5069451;28;20041;-46
2021/03/25 12:31:01;;;;;;;68.55;39.55;;;14.80;94.30;;;;;;5067381;28;20117;-46
2021/03/25 12:33:30;;;;;;;79.57;44.50;;;14.90;93.00;;;;;;5069132;28;20036;-46
2021/03/25 12:35:58;;;;;;;74.10;40.92;;;15.00;93.10;;;;;;5069072;28;20020;-49
2021/03/25 12:38:24;;;;;;;78.10;45.97;;;15.00;94.00;;;;;;5068766;28;20524;-49
2021/03/25 12:40:51;;;;;;;74.35;43.90;;;14.90;90.70;;;;;;5068401;28;20279;-47
2021/03/25 12:43:20;;;;;;;68.65;39.67;;;14.60;91.30;;;;;;5069357;28;20047;-48
2021/03/25 12:45:50;;;;;;;74.47;43.55;;;14.60;92.30;;;;;;5068494;28;20037;-47
2021/03/25 12:48:18;;;;;;;85.63;46.70;;;14.50;91.30;;;;;;5069636;28;20044;-46
2021/03/25 12:50:45;;;;;;;73.40;41.95;;;14.30;91.00;;;;;;5067949;28;20025;-48
2021/03/25 12:53:11;;;;;;;80.50;45.58;;;14.30;91.90;;;;;;5060785;28;20429;-49
2021/03/25 12:55:37;;;;;;;78.80;43.17;;;14.40;92.40;;;;;;5068769;28;20506;-47
2021/03/25 12:58:02;;;;;;;72.50;40.80;;;14.50;91.80;;;;;;5069171;28;20019;-47
2021/03/25 13:00:28;;;;;;;73.20;40.97;;;14.40;91.40;;;;;;5067447;28;20077;-45
2021/03/25 13:02:53;;;;;;;83.07;45.72;;;14.50;90.80;;;;;;5069200;28;20077;-47
2021/03/25 13:05:21;;;;;;;72.68;43.13;;;14.50;89.10;;;;;;5067471;28;20039;-46
2021/03/25 13:24:42;;;;;;;66.00;38.25;;;15.20;87.90;;;;;;5105764;28;20114;-45
2021/03/25 13:27:08;;;;;;;72.13;37.90;;;15.30;86.10;;;;;;5108630;28;20336;-45
2021/03/25 13:29:33;;;;;;;66.53;36.10;;;15.20;83.90;;;;;;5108473;28;20047;-47